Time;durP1;ratioP1;P1;durP2;ratioP2;P2;SDS_P1;SDS_P2;PMS_P1;PMS_P2;Temp;Humidity;BMP_temperature;BMP_pressure;BME280_temperature;BME280_humidity;BME280_pressure;Samples;Min_cycle;Max_cycle;Signal;HPM_P1;HPM_P2
2022/06/04 00:02:30;;;;;;;8.05;4.58;;;;;;;;;;4327171;81;28509;-74
2022/06/04 00:08:32;;;;;;;7.42;4.10;;;;;;;;;;4345866;80;28485;-73
2022/06/04 00:20:54;;;;;;;4.67;4.00;;;;;;;;;;4278131;82;28458;-73
2022/06/04 00:26:55;;;;;;;7.30;3.95;;;;;;;;;;4286167;82;28509;-72
2022/06/04 00:32:57;;;;;;;8.80;4.62;;;;;;;;;;4358726;80;28453;-73
2022/06/04 00:38:59;;;;;;;6.22;4.42;;;;;;;;;;4368044;81;28521;-72
2022/06/04 00:45:19;;;;;;;6.78;4.95;;;;;;;;;;4349900;80;28519;-73
2022/06/04 00:51:23;;;;;;;8.53;4.85;;;;;;;;;;4360180;80;28505;-72
2022/06/04 00:57:31;;;;;;;7.72;4.72;;;;;;;;;;4335121;80;28487;-72
2022/06/04 01:03:42;;;;;;;7.83;5.05;;;;;;;;;;4333981;80;28548;-73
2022/06/04 01:09:50;;;;;;;9.33;5.28;;;;;;;;;;4348170;80;28558;-72
2022/06/04 01:16:04;;;;;;;9.10;5.28;;;;;;;;;;4366652;80;28476;-72
2022/06/04 01:22:25;;;;;;;8.60;4.92;;;;;;;;;;4352890;80;28534;-72
2022/06/04 01:28:29;;;;;;;5.83;4.72;;;;;;;;;;4382797;80;28522;-72
2022/06/04 01:34:37;;;;;;;8.23;4.85;;;;;;;;;;4363592;80;28551;-72
2022/06/04 01:41:04;;;;;;;6.55;4.20;;;;;;;;;;4366557;80;28492;-73
2022/06/04 01:47:05;;;;;;;7.25;5.08;;;;;;;;;;4310825;81;28536;-72
2022/06/04 01:53:09;;;;;;;6.67;4.75;;;;;;;;;;4332206;80;28556;-72
2022/06/04 01:59:16;;;;;;;7.17;5.22;;;;;;;;;;4357607;80;28519;-72
2022/06/04 02:05:21;;;;;;;10.35;4.90;;;;;;;;;;4346525;80;28531;-73
2022/06/04 02:11:24;;;;;;;6.58;5.12;;;;;;;;;;4354271;80;28509;-73
2022/06/04 02:17:26;;;;;;;6.47;4.87;;;;;;;;;;4389478;80;28537;-73
2022/06/04 02:23:31;;;;;;;8.38;5.00;;;;;;;;;;4393818;80;28520;-73
2022/06/04 02:29:38;;;;;;;9.38;5.53;;;;;;;;;;4309968;81;28566;-73
2022/06/04 02:35:43;;;;;;;8.20;5.47;;;;;;;;;;4295901;81;28534;-73
2022/06/04 02:41:47;;;;;;;9.63;5.37;;;;;;;;;;4286904;82;28499;-73
2022/06/04 02:48:17;;;;;;;9.35;5.40;;;;;;;;;;4290754;81;28514;-73
2022/06/04 02:54:21;;;;;;;9.20;6.50;;;;;;;;;;4291827;82;28542;-72
2022/06/04 03:00:25;;;;;;;10.30;6.28;;;;;;;;;;4276039;82;28443;-72
2022/06/04 03:06:30;;;;;;;8.88;5.50;;;;;;;;;;4277695;82;28513;-72
2022/06/04 03:12:31;;;;;;;10.80;5.87;;;;;;;;;;4323516;81;28480;-72
2022/06/04 03:18:33;;;;;;;8.33;5.85;;;;;;;;;;4289419;82;28476;-72
2022/06/04 03:24:34;;;;;;;11.25;5.70;;;;;;;;;;4368222;80;28471;-73
2022/06/04 03:30:35;;;;;;;7.72;5.28;;;;;;;;;;4276661;82;28558;-72
2022/06/04 03:36:37;;;;;;;8.35;5.22;;;;;;;;;;4321714;81;28469;-72
2022/06/04 03:42:38;;;;;;;8.50;5.83;;;;;;;;;;4376412;80;28478;-72
2022/06/04 03:48:39;;;;;;;9.23;5.90;;;;;;;;;;4376229;80;28543;-72
2022/06/04 03:54:53;;;;;;;9.25;5.65;;;;;;;;;;4296237;81;28511;-72
2022/06/04 04:00:54;;;;;;;9.18;5.42;;;;;;;;;;4296819;81;28488;-73
2022/06/04 04:06:55;;;;;;;10.15;5.87;;;;;;;;;;4294359;81;28606;-73
2022/06/04 04:12:57;;;;;;;8.88;5.97;;;;;;;;;;4280001;81;28525;-73
2022/06/04 04:18:58;;;;;;;8.43;5.62;;;;;;;;;;4388151;80;28478;-73
2022/06/04 04:24:59;;;;;;;7.35;6.03;;;;;;;;;;4307701;81;28517;-74
2022/06/04 04:31:01;;;;;;;10.10;5.60;;;;;;;;;;4382298;80;28545;-73
2022/06/04 04:37:03;;;;;;;9.63;5.83;;;;;;;;;;4291113;81;28486;-73
2022/06/04 04:43:04;;;;;;;7.30;5.85;;;;;;;;;;4242593;82;28537;-73
2022/06/04 04:49:06;;;;;;;10.65;6.10;;;;;;;;;;4309380;81;28503;-73
2022/06/04 04:55:07;;;;;;;8.40;6.42;;;;;;;;;;4370247;80;28522;-72
2022/06/04 05:01:23;;;;;;;9.35;6.72;;;;;;;;;;4348044;81;28472;-72
2022/06/04 05:07:25;;;;;;;10.10;6.10;;;;;;;;;;4372338;80;28566;-73
2022/06/04 05:13:26;;;;;;;8.25;5.97;;;;;;;;;;4371468;80;28466;-73
2022/06/04 05:19:27;;;;;;;8.73;6.33;;;;;;;;;;4371609;80;28502;-73
2022/06/04 05:25:28;;;;;;;10.68;6.83;;;;;;;;;;4370794;80;28507;-73
2022/06/04 05:31:29;;;;;;;10.53;7.30;;;;;;;;;;4369738;80;28535;-73
2022/06/04 05:37:30;;;;;;;9.73;6.87;;;;;;;;;;4383773;80;28543;-73
2022/06/04 05:43:32;;;;;;;9.70;6.90;;;;;;;;;;4364268;80;28481;-74
2022/06/04 05:49:33;;;;;;;8.50;6.83;;;;;;;;;;4378206;80;28514;-73
2022/06/04 05:55:37;;;;;;;10.65;7.42;;;;;;;;;;4365811;80;28560;-73
2022/06/04 06:01:40;;;;;;;11.00;7.67;;;;;;;;;;4366178;80;28471;-73
2022/06/04 06:07:41;;;;;;;9.28;7.35;;;;;;;;;;4364888;80;28495;-72
2022/06/04 06:13:43;;;;;;;11.25;8.20;;;;;;;;;;4365064;80;28503;-73
2022/06/04 06:19:45;;;;;;;11.63;8.00;;;;;;;;;;4397481;80;28509;-73
2022/06/04 06:25:46;;;;;;;11.38;8.18;;;;;;;;;;4384298;80;28476;-73
2022/06/04 06:31:47;;;;;;;10.15;7.60;;;;;;;;;;4366133;80;28568;-72
2022/06/04 06:37:49;;;;;;;13.28;7.70;;;;;;;;;;4366513;80;28541;-72
2022/06/04 06:43:51;;;;;;;11.05;8.23;;;;;;;;;;4369447;80;28603;-72
2022/06/04 06:49:52;;;;;;;10.95;8.18;;;;;;;;;;4368386;80;28532;-73
2022/06/04 06:55:54;;;;;;;11.75;8.03;;;;;;;;;;4310275;81;28464;-72
2022/06/04 07:01:56;;;;;;;11.30;8.70;;;;;;;;;;4312017;81;28578;-73
2022/06/04 07:07:57;;;;;;;10.70;7.95;;;;;;;;;;4307397;81;28487;-72
2022/06/04 07:13:58;;;;;;;9.78;8.25;;;;;;;;;;4311992;81;28526;-72
2022/06/04 07:20:00;;;;;;;11.00;7.85;;;;;;;;;;4323294;81;28542;-73
2022/06/04 07:26:03;;;;;;;10.28;7.70;;;;;;;;;;4324489;81;28960;-73
2022/06/04 07:32:05;;;;;;;10.63;8.30;;;;;;;;;;4307192;81;28533;-73
2022/06/04 07:38:06;;;;;;;11.12;8.95;;;;;;;;;;4312234;81;28535;-72
2022/06/04 07:44:08;;;;;;;13.55;9.68;;;;;;;;;;4308321;80;28498;-73
2022/06/04 07:50:10;;;;;;;14.33;10.32;;;;;;;;;;4326994;81;28599;-73
2022/06/04 07:56:14;;;;;;;22.07;18.02;;;;;;;;;;4308662;80;28505;-73
2022/06/04 08:02:15;;;;;;;14.98;11.60;;;;;;;;;;4363620;80;28472;-72
2022/06/04 08:08:17;;;;;;;11.70;9.58;;;;;;;;;;4378590;80;28445;-72
2022/06/04 08:14:23;;;;;;;13.40;10.32;;;;;;;;;;4335716;80;28605;-72
2022/06/04 08:20:24;;;;;;;12.47;10.10;;;;;;;;;;4364013;80;28558;-73
2022/06/04 08:26:26;;;;;;;15.25;9.95;;;;;;;;;;4344113;80;28527;-73
2022/06/04 08:32:27;;;;;;;13.38;9.88;;;;;;;;;;4352003;80;28518;-73
2022/06/04 08:38:28;;;;;;;13.40;9.98;;;;;;;;;;4350952;80;28457;-72
2022/06/04 08:44:36;;;;;;;11.78;10.05;;;;;;;;;;4362739;80;28539;-73
2022/06/04 08:50:37;;;;;;;15.80;10.82;;;;;;;;;;4362687;80;28523;-73
2022/06/04 09:03:17;;;;;;;15.00;11.73;;;;;;;;;;4296269;81;28431;-73
2022/06/04 09:09:34;;;;;;;17.55;12.25;;;;;;;;;;4297334;81;28498;-73
2022/06/04 09:15:41;;;;;;;17.10;12.65;;;;;;;;;;4311548;81;28496;-73
2022/06/04 09:21:42;;;;;;;17.85;13.43;;;;;;;;;;4270931;82;28537;-73
2022/06/04 09:27:52;;;;;;;15.83;12.60;;;;;;;;;;4341662;80;28480;-73
2022/06/04 09:33:57;;;;;;;18.23;13.20;;;;;;;;;;4347323;80;28475;-73
2022/06/04 09:40:04;;;;;;;14.80;12.00;;;;;;;;;;4325020;81;28534;-73
2022/06/04 09:46:07;;;;;;;16.27;11.45;;;;;;;;;;4327288;80;28518;-73
2022/06/04 09:52:38;;;;;;;15.43;11.75;;;;;;;;;;4319073;80;28449;-73
2022/06/04 09:58:46;;;;;;;17.55;12.60;;;;;;;;;;4234314;81;28514;-73
2022/06/04 10:04:52;;;;;;;17.05;13.18;;;;;;;;;;4254901;82;28479;-74
2022/06/04 10:10:59;;;;;;;17.35;13.08;;;;;;;;;;4302211;81;28461;-73
2022/06/04 10:17:02;;;;;;;19.12;13.00;;;;;;;;;;4298038;81;28528;-73
2022/06/04 10:23:06;;;;;;;17.73;12.90;;;;;;;;;;4316142;81;28443;-73
2022/06/04 10:29:28;;;;;;;17.45;13.65;;;;;;;;;;4288973;81;28492;-73
2022/06/04 10:35:47;;;;;;;15.90;12.43;;;;;;;;;;4367099;80;28486;-73
2022/06/04 10:41:55;;;;;;;16.20;13.03;;;;;;;;;;4289198;82;28537;-73
2022/06/04 10:48:06;;;;;;;14.68;12.53;;;;;;;;;;4340951;80;28491;-74
2022/06/04 10:54:17;;;;;;;15.58;12.90;;;;;;;;;;4322079;81;28533;-74
2022/06/04 11:00:23;;;;;;;14.28;12.63;;;;;;;;;;4275906;82;28563;-74
2022/06/04 11:06:26;;;;;;;;;;;;;;;;;;4357659;80;28859;-72
2022/06/04 11:12:46;;;;;;;13.22;11.80;;;;;;;;;;4382691;80;20153;-72
2022/06/04 11:18:57;;;;;;;16.00;12.45;;;;;;;;;;4330494;82;28523;-72
2022/06/04 11:25:24;;;;;;;15.30;13.32;;;;;;;;;;4365454;80;28568;-72
2022/06/04 11:31:42;;;;;;;17.55;12.28;;;;;;;;;;4286773;81;28547;-72
2022/06/04 11:38:17;;;;;;;15.63;13.15;;;;;;;;;;4264555;82;28484;-73
2022/06/04 11:44:37;;;;;;;15.50;13.90;;;;;;;;;;4363608;80;28472;-72
2022/06/04 11:51:14;;;;;;;15.13;13.15;;;;;;;;;;4365335;80;28492;-73
2022/06/04 11:57:41;;;;;;;17.20;13.08;;;;;;;;;;4299843;82;28592;-74
2022/06/04 12:04:00;;;;;;;16.20;14.03;;;;;;;;;;4254142;81;28518;-74
2022/06/04 12:10:08;;;;;;;19.05;15.32;;;;;;;;;;4206074;82;28481;-74
2022/06/04 12:16:31;;;;;;;18.05;15.35;;;;;;;;;;4335410;81;28532;-75
2022/06/04 12:29:33;;;;;;;17.70;15.48;;;;;;;;;;4297140;81;28592;-74
2022/06/04 12:35:34;;;;;;;15.08;13.43;;;;;;;;;;4311350;81;28506;-73
2022/06/04 12:41:39;;;;;;;12.47;9.33;;;;;;;;;;4289062;82;28567;-73
2022/06/04 12:47:42;;;;;;;;;;;;;;;;;;4376162;80;28543;-74
2022/06/04 12:53:56;;;;;;;8.95;8.05;;;;;;;;;;4307008;81;20285;-73
2022/06/04 13:00:13;;;;;;;9.98;8.20;;;;;;;;;;4369805;80;28482;-73
2022/06/04 13:06:39;;;;;;;7.47;6.58;;;;;;;;;;4348232;80;28522;-74
2022/06/04 13:12:49;;;;;;;7.00;6.33;;;;;;;;;;4369764;80;28567;-73
2022/06/04 13:19:03;;;;;;;6.50;5.90;;;;;;;;;;4364518;80;28655;-74
2022/06/04 13:25:08;;;;;;;6.22;5.55;;;;;;;;;;4378331;80;28474;-73
2022/06/04 13:31:25;;;;;;;7.78;5.87;;;;;;;;;;4373541;80;28653;-73
2022/06/04 13:37:26;;;;;;;5.95;5.25;;;;;;;;;;4369463;80;28505;-73
2022/06/04 13:43:29;;;;;;;6.75;5.60;;;;;;;;;;4306471;80;28536;-72
2022/06/04 13:49:30;;;;;;;7.20;5.40;;;;;;;;;;4296779;81;28531;-73
2022/06/04 13:55:37;;;;;;;5.95;5.37;;;;;;;;;;4200296;84;28456;-73
2022/06/04 14:01:40;;;;;;;7.17;6.47;;;;;;;;;;4295678;81;28574;-73
2022/06/04 14:07:44;;;;;;;10.55;7.92;;;;;;;;;;4196754;84;28527;-74
2022/06/04 14:14:13;;;;;;;7.87;6.62;;;;;;;;;;4312315;81;28563;-73
2022/06/04 14:20:52;;;;;;;6.17;5.55;;;;;;;;;;4184406;84;29094;-73
2022/06/04 14:27:00;;;;;;;7.95;7.17;;;;;;;;;;4282954;81;28510;-73
2022/06/04 14:33:03;;;;;;;10.13;8.50;;;;;;;;;;4218499;83;28539;-73
2022/06/04 14:39:05;;;;;;;11.95;10.75;;;;;;;;;;4314178;80;28559;-73
2022/06/04 14:45:13;;;;;;;13.13;11.68;;;;;;;;;;4210200;83;28511;-74
2022/06/04 14:51:18;;;;;;;14.55;12.00;;;;;;;;;;4208178;83;28559;-73
2022/06/04 14:57:27;;;;;;;11.48;8.53;;;;;;;;;;4210843;83;28530;-74
2022/06/04 15:03:50;;;;;;;10.23;8.88;;;;;;;;;;4224413;83;28492;-73
2022/06/04 15:09:54;;;;;;;8.95;7.50;;;;;;;;;;4282980;82;28548;-73
2022/06/04 15:16:12;;;;;;;9.98;8.15;;;;;;;;;;4280013;82;28559;-73
2022/06/04 15:22:38;;;;;;;9.93;8.38;;;;;;;;;;4272894;82;28872;-72
2022/06/04 15:35:08;;;;;;;9.18;8.28;;;;;;;;;;4288356;82;28560;-72
2022/06/04 15:41:15;;;;;;;9.98;8.98;;;;;;;;;;4288681;82;28515;-73
2022/06/04 15:47:17;;;;;;;9.58;8.58;;;;;;;;;;4385197;80;28505;-72
2022/06/04 15:59:41;;;;;;;8.25;7.45;;;;;;;;;;4358542;80;28465;-71
2022/06/04 16:05:58;;;;;;;10.20;8.45;;;;;;;;;;4370083;80;28524;-72
2022/06/04 16:12:18;;;;;;;10.35;8.55;;;;;;;;;;4290381;80;28608;-72
2022/06/04 16:18:29;;;;;;;9.50;8.55;;;;;;;;;;4382348;80;28454;-71
2022/06/04 16:24:38;;;;;;;9.60;8.33;;;;;;;;;;4372115;80;28505;-73
2022/06/04 16:30:39;;;;;;;6.97;6.28;;;;;;;;;;4373457;80;28469;-72
2022/06/04 16:36:52;;;;;;;6.92;6.20;;;;;;;;;;4369316;80;28516;-72
2022/06/04 16:42:56;;;;;;;7.45;6.78;;;;;;;;;;4321872;81;28540;-73
2022/06/04 16:55:31;;;;;;;6.35;5.70;;;;;;;;;;4319813;82;28500;-72
2022/06/04 17:01:33;;;;;;;5.37;4.80;;;;;;;;;;4320840;81;28535;-72
2022/06/04 17:07:56;;;;;;;5.35;4.85;;;;;;;;;;4319775;82;28524;-73
2022/06/04 17:14:16;;;;;;;5.58;5.08;;;;;;;;;;4314396;82;28536;-72
2022/06/04 17:20:24;;;;;;;6.35;5.75;;;;;;;;;;4277080;82;28493;-73
2022/06/04 17:26:38;;;;;;;6.42;5.83;;;;;;;;;;4295001;80;28554;-73
2022/06/04 17:33:01;;;;;;;6.35;5.75;;;;;;;;;;4241647;82;28571;-73
2022/06/04 17:39:25;;;;;;;7.22;6.53;;;;;;;;;;4245287;82;28536;-73
2022/06/04 17:45:27;;;;;;;6.12;5.55;;;;;;;;;;4363166;80;28492;-73
2022/06/04 17:51:29;;;;;;;7.00;5.80;;;;;;;;;;4345512;80;28498;-73
2022/06/04 17:57:31;;;;;;;6.47;5.87;;;;;;;;;;4364705;80;28515;-72
2022/06/04 18:03:32;;;;;;;8.15;6.92;;;;;;;;;;4277697;82;28491;-73
2022/06/04 18:09:33;;;;;;;6.72;6.00;;;;;;;;;;4336414;81;28457;-72
2022/06/04 18:15:34;;;;;;;7.03;6.33;;;;;;;;;;4369158;80;28458;-73
2022/06/04 18:21:35;;;;;;;7.03;6.30;;;;;;;;;;4364016;81;28572;-73
2022/06/04 18:27:36;;;;;;;7.40;6.50;;;;;;;;;;4364734;81;28415;-73
2022/06/04 18:33:38;;;;;;;6.95;6.25;;;;;;;;;;4365177;81;28499;-73
2022/06/04 18:39:39;;;;;;;8.55;6.53;;;;;;;;;;4359489;80;28683;-74
2022/06/04 18:58:20;;;;;;;7.70;6.95;;;;;;;;;;4359528;81;28536;-73
2022/06/04 19:04:21;;;;;;;8.45;7.55;;;;;;;;;;4367562;81;28505;-72
2022/06/04 19:16:29;;;;;;;10.98;8.83;;;;;;;;;;4301523;81;28504;-73
2022/06/04 19:28:51;;;;;;;18.87;14.75;;;;;;;;;;4357260;81;28495;-73
2022/06/04 19:34:53;;;;;;;21.82;15.13;;;;;;;;;;4361808;81;28546;-73
2022/06/04 19:40:55;;;;;;;14.38;11.97;;;;;;;;;;4353607;80;28521;-73
2022/06/04 19:46:59;;;;;;;13.13;11.53;;;;;;;;;;4337491;81;28497;-73
2022/06/04 19:59:20;;;;;;;14.63;11.40;;;;;;;;;;4357160;81;28536;-72
2022/06/04 20:05:22;;;;;;;16.42;13.13;;;;;;;;;;4355291;81;28459;-72
2022/06/04 20:11:23;;;;;;;16.95;13.40;;;;;;;;;;4361955;80;28504;-72
2022/06/04 20:17:24;;;;;;;15.60;12.70;;;;;;;;;;4294733;81;28521;-73
2022/06/04 20:23:26;;;;;;;17.55;13.20;;;;;;;;;;4317495;81;28556;-73
2022/06/04 20:29:27;;;;;;;16.75;13.32;;;;;;;;;;4297543;81;28524;-74
2022/06/04 20:35:28;;;;;;;16.75;13.60;;;;;;;;;;4292731;81;28497;-73
2022/06/04 20:41:31;;;;;;;17.17;12.40;;;;;;;;;;4299718;81;28558;-72
2022/06/04 20:47:32;;;;;;;14.53;11.90;;;;;;;;;;4278853;82;28572;-73
2022/06/04 20:53:33;;;;;;;15.40;11.50;;;;;;;;;;4279270;82;28540;-72
2022/06/04 20:59:35;;;;;;;12.60;10.68;;;;;;;;;;4282969;81;28583;-72
2022/06/04 21:05:37;;;;;;;16.80;12.13;;;;;;;;;;4284261;82;28585;-72
2022/06/04 21:11:39;;;;;;;13.28;11.28;;;;;;;;;;4342277;80;28462;-72
2022/06/04 21:17:40;;;;;;;12.75;10.85;;;;;;;;;;4264043;82;28557;-73
2022/06/04 21:23:43;;;;;;;14.98;11.88;;;;;;;;;;4287902;82;28551;-73
2022/06/04 21:29:44;;;;;;;16.82;12.73;;;;;;;;;;4288005;81;28522;-73
2022/06/04 21:42:12;;;;;;;12.65;11.00;;;;;;;;;;4287327;81;28499;-73
2022/06/04 21:48:13;;;;;;;13.05;10.53;;;;;;;;;;4263307;83;28551;-73
2022/06/04 21:54:14;;;;;;;12.88;10.68;;;;;;;;;;4366263;81;28487;-73
2022/06/04 22:00:22;;;;;;;14.10;11.65;;;;;;;;;;4367174;80;28519;-72
2022/06/04 22:06:24;;;;;;;15.85;11.08;;;;;;;;;;4367388;80;28507;-73
2022/06/04 22:12:25;;;;;;;13.00;10.40;;;;;;;;;;4316342;81;28515;-73
2022/06/04 22:18:27;;;;;;;13.80;10.88;;;;;;;;;;4277307;83;28532;-73
2022/06/04 22:24:29;;;;;;;14.73;11.03;;;;;;;;;;4368227;80;28592;-73
2022/06/04 22:30:30;;;;;;;16.02;11.20;;;;;;;;;;4363223;80;28536;-72
2022/06/04 22:36:33;;;;;;;13.53;11.10;;;;;;;;;;4292947;81;28482;-72
2022/06/04 22:42:34;;;;;;;12.85;10.82;;;;;;;;;;4290677;81;28566;-73
2022/06/04 22:48:36;;;;;;;11.68;9.95;;;;;;;;;;4292702;82;28562;-72
2022/06/04 22:54:40;;;;;;;15.38;11.30;;;;;;;;;;4281972;82;28523;-73
2022/06/04 23:00:41;;;;;;;16.80;12.13;;;;;;;;;;4293531;81;28493;-73
2022/06/04 23:06:44;;;;;;;13.32;10.63;;;;;;;;;;4295970;81;28463;-73
2022/06/04 23:25:25;;;;;;;12.55;10.80;;;;;;;;;;4337389;80;28557;-72
2022/06/04 23:31:27;;;;;;;13.03;10.63;;;;;;;;;;4369217;80;28472;-72
2022/06/04 23:37:28;;;;;;;12.70;10.28;;;;;;;;;;4352233;80;28516;-72
2022/06/04 23:43:30;;;;;;;13.48;10.18;;;;;;;;;;4363073;80;28586;-73
2022/06/04 23:49:31;;;;;;;12.82;10.60;;;;;;;;;;4358963;80;28545;-72
2022/06/04 23:55:32;;;;;;;13.48;10.45;;;;;;;;;;4287832;82;28435;-73
